sensor_id;sensor_type;location;lat;lon;timestamp;temperature;humidity
65470;DHT22;52067;50.710;14.492;2022-09-01T00:01:40;12.85;87.08
65470;DHT22;52067;50.710;14.492;2022-09-01T00:04:07;12.96;86.76
65470;DHT22;52067;50.710;14.492;2022-09-01T00:06:34;12.60;88.02
65470;DHT22;52067;50.710;14.492;2022-09-01T00:09:05;12.68;87.44
65470;DHT22;52067;50.710;14.492;2022-09-01T00:11:31;12.44;88.78
65470;DHT22;52067;50.710;14.492;2022-09-01T00:14:01;12.41;88.04
65470;DHT22;52067;50.710;14.492;2022-09-01T00:16:27;12.41;88.21
65470;DHT22;52067;50.710;14.492;2022-09-01T00:18:53;12.53;87.77
65470;DHT22;52067;50.710;14.492;2022-09-01T00:21:23;12.34;88.12
65470;DHT22;52067;50.710;14.492;2022-09-01T00:23:49;12.12;88.86
65470;DHT22;52067;50.710;14.492;2022-09-01T00:26:15;12.17;88.94
65470;DHT22;52067;50.710;14.492;2022-09-01T00:28:40;12.12;88.31
65470;DHT22;52067;50.710;14.492;2022-09-01T00:31:06;12.25;88.32
65470;DHT22;52067;50.710;14.492;2022-09-01T00:33:35;12.36;87.94
65470;DHT22;52067;50.710;14.492;2022-09-01T00:36:01;12.34;87.89
65470;DHT22;52067;50.710;14.492;2022-09-01T00:38:26;12.41;87.84
65470;DHT22;52067;50.710;14.492;2022-09-01T00:40:52;12.47;87.49
65470;DHT22;52067;50.710;14.492;2022-09-01T00:43:49;12.20;87.95
65470;DHT22;52067;50.710;14.492;2022-09-01T00:46:36;12.30;87.92
65470;DHT22;52067;50.710;14.492;2022-09-01T00:49:34;12.36;88.22
65470;DHT22;52067;50.710;14.492;2022-09-01T00:52:20;12.37;87.89
65470;DHT22;52067;50.710;14.492;2022-09-01T00:54:58;12.37;87.93
65470;DHT22;52067;50.710;14.492;2022-09-01T00:57:24;12.57;87.47
65470;DHT22;52067;50.710;14.492;2022-09-01T01:00:10;12.56;86.85
65470;DHT22;52067;50.710;14.492;2022-09-01T01:02:38;12.47;87.34
65470;DHT22;52067;50.710;14.492;2022-09-01T01:05:05;12.58;86.90
65470;DHT22;52067;50.710;14.492;2022-09-01T01:07:30;12.69;86.61
65470;DHT22;52067;50.710;14.492;2022-09-01T01:10:05;12.77;86.44
65470;DHT22;52067;50.710;14.492;2022-09-01T01:12:32;12.41;87.55
65470;DHT22;52067;50.710;14.492;2022-09-01T01:15:00;12.53;87.65
65470;DHT22;52067;50.710;14.492;2022-09-01T01:17:27;12.54;87.59
65470;DHT22;52067;50.710;14.492;2022-09-01T01:19:54;12.75;87.30
65470;DHT22;52067;50.710;14.492;2022-09-01T01:28:17;12.69;87.22
65470;DHT22;52067;50.710;14.492;2022-09-01T01:30:55;12.73;86.68
65470;DHT22;52067;50.710;14.492;2022-09-01T01:33:29;12.64;87.09
65470;DHT22;52067;50.710;14.492;2022-09-01T01:35:55;12.57;87.04
65470;DHT22;52067;50.710;14.492;2022-09-01T01:38:22;12.67;86.85
65470;DHT22;52067;50.710;14.492;2022-09-01T01:40:49;12.17;88.31
65470;DHT22;52067;50.710;14.492;2022-09-01T01:43:16;12.27;88.01
65470;DHT22;52067;50.710;14.492;2022-09-01T01:45:46;12.34;87.81
65470;DHT22;52067;50.710;14.492;2022-09-01T01:48:13;12.34;87.43
65470;DHT22;52067;50.710;14.492;2022-09-01T01:50:40;12.34;87.43
65470;DHT22;52067;50.710;14.492;2022-09-01T01:53:08;12.44;87.02
65470;DHT22;52067;50.710;14.492;2022-09-01T01:55:33;12.41;87.03
65470;DHT22;52067;50.710;14.492;2022-09-01T01:57:59;12.32;87.15
65470;DHT22;52067;50.710;14.492;2022-09-01T02:00:27;12.36;87.22
65470;DHT22;52067;50.710;14.492;2022-09-01T02:02:53;12.36;86.94
65470;DHT22;52067;50.710;14.492;2022-09-01T02:07:46;12.32;86.98
65470;DHT22;52067;50.710;14.492;2022-09-01T02:10:12;12.19;87.64
65470;DHT22;52067;50.710;14.492;2022-09-01T02:12:38;12.15;87.41
65470;DHT22;52067;50.710;14.492;2022-09-01T02:15:04;12.16;87.36
65470;DHT22;52067;50.710;14.492;2022-09-01T02:17:31;12.16;87.68
65470;DHT22;52067;50.710;14.492;2022-09-01T02:19:56;12.22;87.41
65470;DHT22;52067;50.710;14.492;2022-09-01T02:22:22;12.27;87.18
65470;DHT22;52067;50.710;14.492;2022-09-01T02:24:47;12.17;87.35
65470;DHT22;52067;50.710;14.492;2022-09-01T02:27:13;12.15;87.18
65470;DHT22;52067;50.710;14.492;2022-09-01T02:29:39;12.12;86.84
65470;DHT22;52067;50.710;14.492;2022-09-01T02:32:05;12.02;87.22
65470;DHT22;52067;50.710;14.492;2022-09-01T02:34:30;11.68;87.91
65470;DHT22;52067;50.710;14.492;2022-09-01T02:36:56;11.86;87.59
65470;DHT22;52067;50.710;14.492;2022-09-01T02:39:27;11.74;88.00
65470;DHT22;52067;50.710;14.492;2022-09-01T02:41:54;11.89;87.43
65470;DHT22;52067;50.710;14.492;2022-09-01T02:44:19;11.92;86.90
65470;DHT22;52067;50.710;14.492;2022-09-01T02:46:46;11.89;87.03
65470;DHT22;52067;50.710;14.492;2022-09-01T02:49:15;11.86;86.80
65470;DHT22;52067;50.710;14.492;2022-09-01T02:51:47;11.89;86.68
65470;DHT22;52067;50.710;14.492;2022-09-01T02:54:14;11.79;86.86
65470;DHT22;52067;50.710;14.492;2022-09-01T02:56:41;11.74;87.24
65470;DHT22;52067;50.710;14.492;2022-09-01T02:59:08;11.67;86.97
65470;DHT22;52067;50.710;14.492;2022-09-01T03:01:37;11.24;88.64
65470;DHT22;52067;50.710;14.492;2022-09-01T03:04:04;11.28;88.91
65470;DHT22;52067;50.710;14.492;2022-09-01T03:06:32;11.42;88.12
65470;DHT22;52067;50.710;14.492;2022-09-01T03:08:59;11.41;88.14
65470;DHT22;52067;50.710;14.492;2022-09-01T03:11:25;11.32;88.05
65470;DHT22;52067;50.710;14.492;2022-09-01T03:13:51;11.24;88.55
65470;DHT22;52067;50.710;14.492;2022-09-01T03:16:17;11.30;88.27
65470;DHT22;52067;50.710;14.492;2022-09-01T03:18:43;10.96;89.11
65470;DHT22;52067;50.710;14.492;2022-09-01T03:21:09;10.97;89.44
65470;DHT22;52067;50.710;14.492;2022-09-01T03:23:40;10.97;89.13
65470;DHT22;52067;50.710;14.492;2022-09-01T03:26:06;11.10;89.16
65470;DHT22;52067;50.710;14.492;2022-09-01T03:28:31;11.24;88.43
65470;DHT22;52067;50.710;14.492;2022-09-01T03:30:57;11.30;88.20
65470;DHT22;52067;50.710;14.492;2022-09-01T03:33:25;11.24;88.08
65470;DHT22;52067;50.710;14.492;2022-09-01T03:35:54;11.30;87.93
65470;DHT22;52067;50.710;14.492;2022-09-01T03:38:20;11.31;87.80
65470;DHT22;52067;50.710;14.492;2022-09-01T03:40:53;11.34;87.66
65470;DHT22;52067;50.710;14.492;2022-09-01T03:43:22;11.37;87.65
65470;DHT22;52067;50.710;14.492;2022-09-01T03:45:49;11.27;87.67
65470;DHT22;52067;50.710;14.492;2022-09-01T03:48:14;11.17;87.98
65470;DHT22;52067;50.710;14.492;2022-09-01T03:50:42;11.09;87.80
65470;DHT22;52067;50.710;14.492;2022-09-01T03:53:17;11.03;88.32
65470;DHT22;52067;50.710;14.492;2022-09-01T03:55:45;10.92;88.33
65470;DHT22;52067;50.710;14.492;2022-09-01T03:58:13;11.03;88.28
65470;DHT22;52067;50.710;14.492;2022-09-01T04:00:45;10.83;88.46
65470;DHT22;52067;50.710;14.492;2022-09-01T04:03:11;10.63;89.53
65470;DHT22;52067;50.710;14.492;2022-09-01T04:05:41;10.65;90.02
65470;DHT22;52067;50.710;14.492;2022-09-01T04:08:07;10.79;89.37
65470;DHT22;52067;50.710;14.492;2022-09-01T04:10:37;10.97;88.74
65470;DHT22;52067;50.710;14.492;2022-09-01T04:13:06;11.06;88.49
65470;DHT22;52067;50.710;14.492;2022-09-01T04:15:36;11.09;88.51
65470;DHT22;52067;50.710;14.492;2022-09-01T04:18:02;11.20;88.07
65470;DHT22;52067;50.710;14.492;2022-09-01T04:20:39;11.35;87.84
65470;DHT22;52067;50.710;14.492;2022-09-01T04:23:33;11.20;87.83
65470;DHT22;52067;50.710;14.492;2022-09-01T04:28:34;11.35;88.05
65470;DHT22;52067;50.710;14.492;2022-09-01T04:31:04;11.42;87.47
65470;DHT22;52067;50.710;14.492;2022-09-01T04:33:32;11.57;87.11
65470;DHT22;52067;50.710;14.492;2022-09-01T04:36:33;11.57;87.82
65470;DHT22;52067;50.710;14.492;2022-09-01T04:39:01;11.64;87.43
65470;DHT22;52067;50.710;14.492;2022-09-01T04:41:34;11.77;86.97
65470;DHT22;52067;50.710;14.492;2022-09-01T04:44:00;11.71;87.05
65470;DHT22;52067;50.710;14.492;2022-09-01T04:46:30;11.81;87.03
65470;DHT22;52067;50.710;14.492;2022-09-01T04:48:58;11.78;87.30
65470;DHT22;52067;50.710;14.492;2022-09-01T04:51:24;11.59;88.19
65470;DHT22;52067;50.710;14.492;2022-09-01T04:53:55;11.67;88.55
65470;DHT22;52067;50.710;14.492;2022-09-01T04:56:22;11.69;88.14
65470;DHT22;52067;50.710;14.492;2022-09-01T04:58:49;11.83;87.84
65470;DHT22;52067;50.710;14.492;2022-09-01T05:01:17;11.68;88.64
65470;DHT22;52067;50.710;14.492;2022-09-01T05:03:43;11.81;88.14
65470;DHT22;52067;50.710;14.492;2022-09-01T05:06:14;11.89;88.23
65470;DHT22;52067;50.710;14.492;2022-09-01T05:08:40;12.10;88.05
65470;DHT22;52067;50.710;14.492;2022-09-01T05:11:06;12.15;87.73
65470;DHT22;52067;50.710;14.492;2022-09-01T05:13:36;12.38;86.90
65470;DHT22;52067;50.710;14.492;2022-09-01T05:16:06;12.48;86.57
65470;DHT22;52067;50.710;14.492;2022-09-01T05:18:41;12.57;86.59
65470;DHT22;52067;50.710;14.492;2022-09-01T05:21:09;12.44;87.39
65470;DHT22;52067;50.710;14.492;2022-09-01T05:23:38;12.69;86.32
65470;DHT22;52067;50.710;14.492;2022-09-01T05:26:18;12.94;85.94
65470;DHT22;52067;50.710;14.492;2022-09-01T05:28:44;13.01;85.84
65470;DHT22;52067;50.710;14.492;2022-09-01T05:31:10;13.18;85.44
65470;DHT22;52067;50.710;14.492;2022-09-01T05:33:37;13.19;86.12
65470;DHT22;52067;50.710;14.492;2022-09-01T05:36:09;13.46;85.20
65470;DHT22;52067;50.710;14.492;2022-09-01T05:38:35;13.59;85.57
65470;DHT22;52067;50.710;14.492;2022-09-01T05:41:03;13.53;85.53
65470;DHT22;52067;50.710;14.492;2022-09-01T05:43:33;13.74;85.16
65470;DHT22;52067;50.710;14.492;2022-09-01T05:46:00;13.84;84.54
65470;DHT22;52067;50.710;14.492;2022-09-01T05:48:28;13.83;85.26
65470;DHT22;52067;50.710;14.492;2022-09-01T05:50:56;14.17;84.24
65470;DHT22;52067;50.710;14.492;2022-09-01T05:53:25;14.26;83.43
65470;DHT22;52067;50.710;14.492;2022-09-01T05:55:51;14.21;83.65
65470;DHT22;52067;50.710;14.492;2022-09-01T05:58:22;14.15;82.56
65470;DHT22;52067;50.710;14.492;2022-09-01T06:00:49;14.43;82.05
65470;DHT22;52067;50.710;14.492;2022-09-01T06:03:16;14.51;81.50
65470;DHT22;52067;50.710;14.492;2022-09-01T06:05:42;14.76;81.34
65470;DHT22;52067;50.710;14.492;2022-09-01T06:08:09;14.73;80.97
65470;DHT22;52067;50.710;14.492;2022-09-01T06:10:38;14.89;80.80
65470;DHT22;52067;50.710;14.492;2022-09-01T06:13:05;14.99;79.93
65470;DHT22;52067;50.710;14.492;2022-09-01T06:15:31;15.41;79.13
65470;DHT22;52067;50.710;14.492;2022-09-01T06:17:58;15.39;79.90
65470;DHT22;52067;50.710;14.492;2022-09-01T06:20:23;15.70;81.38
65470;DHT22;52067;50.710;14.492;2022-09-01T06:22:49;15.61;79.32
65470;DHT22;52067;50.710;14.492;2022-09-01T06:25:16;15.92;78.45
65470;DHT22;52067;50.710;14.492;2022-09-01T06:27:42;16.26;78.37
65470;DHT22;52067;50.710;14.492;2022-09-01T06:30:09;16.45;76.77
65470;DHT22;52067;50.710;14.492;2022-09-01T06:32:44;16.53;77.29
65470;DHT22;52067;50.710;14.492;2022-09-01T06:35:13;16.33;77.81
65470;DHT22;52067;50.710;14.492;2022-09-01T06:37:40;15.99;78.51
65470;DHT22;52067;50.710;14.492;2022-09-01T06:40:08;16.50;77.72
65470;DHT22;52067;50.710;14.492;2022-09-01T06:42:35;16.53;79.06
65470;DHT22;52067;50.710;14.492;2022-09-01T06:45:02;16.85;76.92
65470;DHT22;52067;50.710;14.492;2022-09-01T06:47:27;16.58;77.24
65470;DHT22;52067;50.710;14.492;2022-09-01T06:49:54;16.68;78.35
65470;DHT22;52067;50.710;14.492;2022-09-01T06:52:24;16.98;77.56
65470;DHT22;52067;50.710;14.492;2022-09-01T06:54:50;16.79;76.80
65470;DHT22;52067;50.710;14.492;2022-09-01T06:57:18;17.08;77.46
65470;DHT22;52067;50.710;14.492;2022-09-01T06:59:44;17.18;75.73
65470;DHT22;52067;50.710;14.492;2022-09-01T07:02:10;16.84;77.87
65470;DHT22;52067;50.710;14.492;2022-09-01T07:04:41;17.43;76.59
65470;DHT22;52067;50.710;14.492;2022-09-01T07:07:08;17.71;74.74
65470;DHT22;52067;50.710;14.492;2022-09-01T07:09:34;17.60;75.18
65470;DHT22;52067;50.710;14.492;2022-09-01T07:11:59;17.74;72.80
65470;DHT22;52067;50.710;14.492;2022-09-01T07:14:28;18.09;72.67
65470;DHT22;52067;50.710;14.492;2022-09-01T07:16:54;18.24;71.26
65470;DHT22;52067;50.710;14.492;2022-09-01T07:19:20;17.92;71.92
65470;DHT22;52067;50.710;14.492;2022-09-01T07:21:45;18.31;71.72
65470;DHT22;52067;50.710;14.492;2022-09-01T07:24:12;18.39;70.50
65470;DHT22;52067;50.710;14.492;2022-09-01T07:26:40;18.13;69.06
65470;DHT22;52067;50.710;14.492;2022-09-01T07:29:06;18.22;70.22
65470;DHT22;52067;50.710;14.492;2022-09-01T07:31:38;18.31;70.45
65470;DHT22;52067;50.710;14.492;2022-09-01T07:34:08;18.57;70.57
65470;DHT22;52067;50.710;14.492;2022-09-01T07:36:41;18.16;67.07
65470;DHT22;52067;50.710;14.492;2022-09-01T07:39:10;18.55;68.51
65470;DHT22;52067;50.710;14.492;2022-09-01T07:41:36;18.76;67.15
65470;DHT22;52067;50.710;14.492;2022-09-01T07:44:04;18.98;69.15
65470;DHT22;52067;50.710;14.492;2022-09-01T07:46:30;19.28;65.52
65470;DHT22;52067;50.710;14.492;2022-09-01T07:48:59;19.11;65.63
65470;DHT22;52067;50.710;14.492;2022-09-01T07:51:26;19.41;65.49
65470;DHT22;52067;50.710;14.492;2022-09-01T07:53:52;19.41;65.99
65470;DHT22;52067;50.710;14.492;2022-09-01T07:56:20;19.69;62.87
65470;DHT22;52067;50.710;14.492;2022-09-01T07:58:47;19.75;60.83
65470;DHT22;52067;50.710;14.492;2022-09-01T08:01:16;19.86;60.04
65470;DHT22;52067;50.710;14.492;2022-09-01T08:03:44;19.92;60.63
65470;DHT22;52067;50.710;14.492;2022-09-01T08:06:13;19.59;60.96
65470;DHT22;52067;50.710;14.492;2022-09-01T08:08:44;19.98;60.23
65470;DHT22;52067;50.710;14.492;2022-09-01T08:11:15;19.97;61.31
65470;DHT22;52067;50.710;14.492;2022-09-01T08:13:41;19.76;63.30
65470;DHT22;52067;50.710;14.492;2022-09-01T08:16:07;19.86;59.32
65470;DHT22;52067;50.710;14.492;2022-09-01T08:18:32;19.83;56.51
65470;DHT22;52067;50.710;14.492;2022-09-01T08:20:58;19.77;55.01
65470;DHT22;52067;50.710;14.492;2022-09-01T08:23:23;19.58;53.10
65470;DHT22;52067;50.710;14.492;2022-09-01T08:25:51;19.62;54.62
65470;DHT22;52067;50.710;14.492;2022-09-01T08:28:17;19.35;56.58
65470;DHT22;52067;50.710;14.492;2022-09-01T08:30:43;19.59;57.18
65470;DHT22;52067;50.710;14.492;2022-09-01T08:33:09;19.58;56.34
65470;DHT22;52067;50.710;14.492;2022-09-01T08:35:40;19.06;58.83
65470;DHT22;52067;50.710;14.492;2022-09-01T08:38:06;19.10;58.39
65470;DHT22;52067;50.710;14.492;2022-09-01T08:40:32;19.44;58.70
65470;DHT22;52067;50.710;14.492;2022-09-01T08:45:57;19.55;57.53
65470;DHT22;52067;50.710;14.492;2022-09-01T08:48:41;19.94;57.07
65470;DHT22;52067;50.710;14.492;2022-09-01T08:51:45;20.21;57.27
65470;DHT22;52067;50.710;14.492;2022-09-01T08:54:26;20.23;57.64
65470;DHT22;52067;50.710;14.492;2022-09-01T08:56:57;20.31;56.39
65470;DHT22;52067;50.710;14.492;2022-09-01T08:59:23;19.94;54.36
65470;DHT22;52067;50.710;14.492;2022-09-01T09:01:59;20.06;54.30
65470;DHT22;52067;50.710;14.492;2022-09-01T09:10:13;21.36;51.35
65470;DHT22;52067;50.710;14.492;2022-09-01T09:13:06;20.30;54.07
65470;DHT22;52067;50.710;14.492;2022-09-01T09:18:24;19.32;52.97
65470;DHT22;52067;50.710;14.492;2022-09-01T09:20:51;19.44;54.93
65470;DHT22;52067;50.710;14.492;2022-09-01T09:23:33;19.45;54.12
65470;DHT22;52067;50.710;14.492;2022-09-01T09:26:00;19.29;55.00
65470;DHT22;52067;50.710;14.492;2022-09-01T09:28:25;19.42;56.70
65470;DHT22;52067;50.710;14.492;2022-09-01T09:30:51;19.42;56.22
65470;DHT22;52067;50.710;14.492;2022-09-01T09:33:37;19.45;55.40
65470;DHT22;52067;50.710;14.492;2022-09-01T09:36:22;19.87;52.81
65470;DHT22;52067;50.710;14.492;2022-09-01T09:39:13;20.09;52.26
65470;DHT22;52067;50.710;14.492;2022-09-01T09:41:40;20.05;54.33
65470;DHT22;52067;50.710;14.492;2022-09-01T09:44:26;20.26;52.92
65470;DHT22;52067;50.710;14.492;2022-09-01T09:46:53;20.09;53.11
65470;DHT22;52067;50.710;14.492;2022-09-01T09:49:32;20.55;52.60
65470;DHT22;52067;50.710;14.492;2022-09-01T09:54:29;21.07;49.79
65470;DHT22;52067;50.710;14.492;2022-09-01T09:59:36;21.32;49.98
65470;DHT22;52067;50.710;14.492;2022-09-01T10:04:46;22.35;46.64
65470;DHT22;52067;50.710;14.492;2022-09-01T10:07:28;23.85;49.09
65470;DHT22;52067;50.710;14.492;2022-09-01T10:09:56;23.34;45.25
65470;DHT22;52067;50.710;14.492;2022-09-01T10:12:23;22.81;46.89
65470;DHT22;52067;50.710;14.492;2022-09-01T10:14:52;22.55;42.49
65470;DHT22;52067;50.710;14.492;2022-09-01T10:17:36;23.62;40.65
65470;DHT22;52067;50.710;14.492;2022-09-01T10:22:34;23.59;40.66
65470;DHT22;52067;50.710;14.492;2022-09-01T10:25:01;23.39;40.35
65470;DHT22;52067;50.710;14.492;2022-09-01T10:27:34;22.55;41.59
65470;DHT22;52067;50.710;14.492;2022-09-01T10:32:38;25.67;34.34
65470;DHT22;52067;50.710;14.492;2022-09-01T10:35:07;24.28;34.69
65470;DHT22;52067;50.710;14.492;2022-09-01T10:37:36;23.69;35.52
65470;DHT22;52067;50.710;14.492;2022-09-01T10:40:10;23.56;36.05
65470;DHT22;52067;50.710;14.492;2022-09-01T10:42:36;23.83;37.34
65470;DHT22;52067;50.710;14.492;2022-09-01T10:45:01;25.49;33.42
65470;DHT22;52067;50.710;14.492;2022-09-01T10:47:33;26.16;30.07
65470;DHT22;52067;50.710;14.492;2022-09-01T10:50:22;25.97;31.89
65470;DHT22;52067;50.710;14.492;2022-09-01T10:55:42;23.19;37.86
65470;DHT22;52067;50.710;14.492;2022-09-01T11:01:08;21.84;38.23
65470;DHT22;52067;50.710;14.492;2022-09-01T11:03:48;21.33;41.48
65470;DHT22;52067;50.710;14.492;2022-09-01T11:11:50;24.85;34.83
65470;DHT22;52067;50.710;14.492;2022-09-01T11:14:24;21.68;42.79
65470;DHT22;52067;50.710;14.492;2022-09-01T11:19:44;21.85;44.52
65470;DHT22;52067;50.710;14.492;2022-09-01T11:22:24;20.58;45.55
65470;DHT22;52067;50.710;14.492;2022-09-01T11:30:16;20.56;46.71
65470;DHT22;52067;50.710;14.492;2022-09-01T11:32:45;20.14;43.75
65470;DHT22;52067;50.710;14.492;2022-09-01T11:35:17;20.06;43.51
65470;DHT22;52067;50.710;14.492;2022-09-01T11:37:47;20.00;45.59
65470;DHT22;52067;50.710;14.492;2022-09-01T11:40:19;19.89;48.26
65470;DHT22;52067;50.710;14.492;2022-09-01T11:42:48;19.56;51.33
65470;DHT22;52067;50.710;14.492;2022-09-01T11:45:22;20.01;51.64
65470;DHT22;52067;50.710;14.492;2022-09-01T11:47:51;20.41;47.06
65470;DHT22;52067;50.710;14.492;2022-09-01T11:50:26;20.33;46.88
65470;DHT22;52067;50.710;14.492;2022-09-01T11:53:13;20.17;48.69
65470;DHT22;52067;50.710;14.492;2022-09-01T11:55:42;21.36;45.48
65470;DHT22;52067;50.710;14.492;2022-09-01T11:58:27;23.01;41.92
65470;DHT22;52067;50.710;14.492;2022-09-01T12:03:41;26.18;36.94
65470;DHT22;52067;50.710;14.492;2022-09-01T12:06:10;23.31;43.53
65470;DHT22;52067;50.710;14.492;2022-09-01T12:08:38;22.21;46.21
65470;DHT22;52067;50.710;14.492;2022-09-01T12:14:05;25.23;38.37
65470;DHT22;52067;50.710;14.492;2022-09-01T12:16:34;24.73;38.68
65470;DHT22;52067;50.710;14.492;2022-09-01T12:19:02;26.24;37.31
65470;DHT22;52067;50.710;14.492;2022-09-01T12:21:31;24.62;37.81
65470;DHT22;52067;50.710;14.492;2022-09-01T12:24:14;25.18;36.60
65470;DHT22;52067;50.710;14.492;2022-09-01T12:26:40;25.36;33.56
65470;DHT22;52067;50.710;14.492;2022-09-01T12:29:06;25.46;32.47
65470;DHT22;52067;50.710;14.492;2022-09-01T12:31:32;24.95;34.85
65470;DHT22;52067;50.710;14.492;2022-09-01T12:33:58;25.05;33.97
65470;DHT22;52067;50.710;14.492;2022-09-01T12:36:34;23.75;37.02
65470;DHT22;52067;50.710;14.492;2022-09-01T12:39:22;24.96;35.63
65470;DHT22;52067;50.710;14.492;2022-09-01T12:42:04;25.19;35.43
65470;DHT22;52067;50.710;14.492;2022-09-01T12:47:04;25.89;32.38
65470;DHT22;52067;50.710;14.492;2022-09-01T12:49:45;23.54;38.78
65470;DHT22;52067;50.710;14.492;2022-09-01T12:52:31;24.50;35.09
65470;DHT22;52067;50.710;14.492;2022-09-01T13:02:44;25.66;33.33
65470;DHT22;52067;50.710;14.492;2022-09-01T13:05:19;24.88;33.32
65470;DHT22;52067;50.710;14.492;2022-09-01T13:07:44;25.36;35.39
65470;DHT22;52067;50.710;14.492;2022-09-01T13:10:09;27.38;31.00
65470;DHT22;52067;50.710;14.492;2022-09-01T13:12:39;26.21;32.67
65470;DHT22;52067;50.710;14.492;2022-09-01T13:15:07;28.00;30.34
65470;DHT22;52067;50.710;14.492;2022-09-01T13:17:32;28.33;29.20
65470;DHT22;52067;50.710;14.492;2022-09-01T13:19:58;28.47;29.98
65470;DHT22;52067;50.710;14.492;2022-09-01T13:22:23;28.64;31.12
65470;DHT22;52067;50.710;14.492;2022-09-01T13:24:49;28.31;31.56
65470;DHT22;52067;50.710;14.492;2022-09-01T13:27:14;27.24;33.20
65470;DHT22;52067;50.710;14.492;2022-09-01T13:29:39;27.96;33.31
65470;DHT22;52067;50.710;14.492;2022-09-01T13:32:06;28.69;33.05
65470;DHT22;52067;50.710;14.492;2022-09-01T13:34:32;26.02;36.79
65470;DHT22;52067;50.710;14.492;2022-09-01T13:36:57;28.23;33.79
65470;DHT22;52067;50.710;14.492;2022-09-01T13:39:22;26.76;36.84
65470;DHT22;52067;50.710;14.492;2022-09-01T13:41:48;26.56;35.62
65470;DHT22;52067;50.710;14.492;2022-09-01T13:44:14;26.18;35.79
65470;DHT22;52067;50.710;14.492;2022-09-01T13:46:39;27.23;34.76
65470;DHT22;52067;50.710;14.492;2022-09-01T13:49:05;27.38;33.62
65470;DHT22;52067;50.710;14.492;2022-09-01T13:51:31;26.06;35.26
65470;DHT22;52067;50.710;14.492;2022-09-01T13:53:56;26.06;35.65
65470;DHT22;52067;50.710;14.492;2022-09-01T13:56:22;26.29;34.50
65470;DHT22;52067;50.710;14.492;2022-09-01T13:58:47;27.65;34.04
65470;DHT22;52067;50.710;14.492;2022-09-01T14:01:13;26.79;35.52
65470;DHT22;52067;50.710;14.492;2022-09-01T14:03:39;24.65;39.79
65470;DHT22;52067;50.710;14.492;2022-09-01T14:06:06;25.84;37.79
65470;DHT22;52067;50.710;14.492;2022-09-01T14:08:31;25.57;38.65
65470;DHT22;52067;50.710;14.492;2022-09-01T14:10:58;23.93;42.82
65470;DHT22;52067;50.710;14.492;2022-09-01T14:13:25;23.21;44.75
65470;DHT22;52067;50.710;14.492;2022-09-01T14:15:51;22.16;47.15
65470;DHT22;52067;50.710;14.492;2022-09-01T14:18:18;20.76;50.29
65470;DHT22;52067;50.710;14.492;2022-09-01T14:20:46;20.84;49.59
65470;DHT22;52067;50.710;14.492;2022-09-01T14:23:13;20.63;51.49
65470;DHT22;52067;50.710;14.492;2022-09-01T14:25:46;20.17;51.54
65470;DHT22;52067;50.710;14.492;2022-09-01T14:28:12;20.24;50.01
65470;DHT22;52067;50.710;14.492;2022-09-01T14:30:40;20.14;50.22
65470;DHT22;52067;50.710;14.492;2022-09-01T14:33:07;20.01;50.10
65470;DHT22;52067;50.710;14.492;2022-09-01T14:35:37;20.27;48.79
65470;DHT22;52067;50.710;14.492;2022-09-01T14:38:02;20.41;48.21
65470;DHT22;52067;50.710;14.492;2022-09-01T14:40:31;20.14;48.58
65470;DHT22;52067;50.710;14.492;2022-09-01T14:42:56;20.54;48.92
65470;DHT22;52067;50.710;14.492;2022-09-01T14:45:25;20.33;49.97
65470;DHT22;52067;50.710;14.492;2022-09-01T14:47:52;19.79;48.63
65470;DHT22;52067;50.710;14.492;2022-09-01T14:50:20;19.66;48.19
65470;DHT22;52067;50.710;14.492;2022-09-01T14:52:47;19.96;47.39
65470;DHT22;52067;50.710;14.492;2022-09-01T14:55:13;19.72;47.17
65470;DHT22;52067;50.710;14.492;2022-09-01T14:57:38;19.75;49.15
65470;DHT22;52067;50.710;14.492;2022-09-01T15:00:07;19.73;48.19
65470;DHT22;52067;50.710;14.492;2022-09-01T15:02:37;19.72;47.93
65470;DHT22;52067;50.710;14.492;2022-09-01T15:05:03;19.73;50.99
65470;DHT22;52067;50.710;14.492;2022-09-01T15:07:29;19.72;49.15
65470;DHT22;52067;50.710;14.492;2022-09-01T15:09:54;19.76;49.66
65470;DHT22;52067;50.710;14.492;2022-09-01T15:12:22;19.49;49.03
65470;DHT22;52067;50.710;14.492;2022-09-01T15:14:49;19.52;50.12
65470;DHT22;52067;50.710;14.492;2022-09-01T15:17:14;19.66;50.76
65470;DHT22;52067;50.710;14.492;2022-09-01T15:19:40;20.17;49.63
65470;DHT22;52067;50.710;14.492;2022-09-01T15:22:05;19.97;49.92
65470;DHT22;52067;50.710;14.492;2022-09-01T15:24:32;20.13;48.04
65470;DHT22;52067;50.710;14.492;2022-09-01T15:26:58;20.12;47.58
65470;DHT22;52067;50.710;14.492;2022-09-01T15:29:23;19.80;49.11
65470;DHT22;52067;50.710;14.492;2022-09-01T15:31:48;19.22;50.08
65470;DHT22;52067;50.710;14.492;2022-09-01T15:34:14;19.36;49.69
65470;DHT22;52067;50.710;14.492;2022-09-01T15:36:42;19.61;49.98
65470;DHT22;52067;50.710;14.492;2022-09-01T15:39:10;19.51;51.10
65470;DHT22;52067;50.710;14.492;2022-09-01T15:41:36;19.18;52.63
65470;DHT22;52067;50.710;14.492;2022-09-01T15:44:03;19.21;53.60
65470;DHT22;52067;50.710;14.492;2022-09-01T15:46:34;19.21;54.33
65470;DHT22;52067;50.710;14.492;2022-09-01T15:49:06;19.12;55.40
65470;DHT22;52067;50.710;14.492;2022-09-01T15:51:35;19.35;55.54
65470;DHT22;52067;50.710;14.492;2022-09-01T15:54:12;19.44;56.23
65470;DHT22;52067;50.710;14.492;2022-09-01T15:56:38;19.49;55.72
65470;DHT22;52067;50.710;14.492;2022-09-01T15:59:05;19.55;55.29
65470;DHT22;52067;50.710;14.492;2022-09-01T16:01:34;19.51;55.96
65470;DHT22;52067;50.710;14.492;2022-09-01T16:04:01;19.38;56.48
65470;DHT22;52067;50.710;14.492;2022-09-01T16:06:27;19.42;56.31
65470;DHT22;52067;50.710;14.492;2022-09-01T16:08:53;19.36;55.69
65470;DHT22;52067;50.710;14.492;2022-09-01T16:11:20;19.27;53.99
65470;DHT22;52067;50.710;14.492;2022-09-01T16:13:48;19.19;55.14
65470;DHT22;52067;50.710;14.492;2022-09-01T16:19:37;18.93;55.11
65470;DHT22;52067;50.710;14.492;2022-09-01T16:22:36;18.91;54.57
65470;DHT22;52067;50.710;14.492;2022-09-01T16:25:11;18.77;54.86
65470;DHT22;52067;50.710;14.492;2022-09-01T16:27:42;18.76;54.93
65470;DHT22;52067;50.710;14.492;2022-09-01T16:30:13;18.61;55.44
65470;DHT22;52067;50.710;14.492;2022-09-01T16:32:44;18.55;56.11
65470;DHT22;52067;50.710;14.492;2022-09-01T16:35:11;18.39;56.55
65470;DHT22;52067;50.710;14.492;2022-09-01T16:37:54;18.21;56.50
65470;DHT22;52067;50.710;14.492;2022-09-01T16:43:08;17.81;57.92
65470;DHT22;52067;50.710;14.492;2022-09-01T16:46:01;17.71;58.06